Форум клана ЧПУшников

Информация о пользователе

Привет, Гость! Войдите или зарегистрируйтесь.


Вы здесь » Форум клана ЧПУшников » Лазерные станки


Лазерные станки

Тем 321 страница 400 из 461

Тема Ответов Просмотров Последнее сообщение
3 593 27-04-2016 20:39:04  andrey_e
6 286 27-04-2016 16:16:09  denisej
323 Reci s2  Neudrums
35 893 26-04-2016 21:17:31  Элинка
5 474 25-04-2016 16:52:18  MPN
15 1324 23-04-2016 22:53:06  Sokrat
9 528 23-04-2016 17:45:11  Tab
35 1028 23-04-2016 13:05:00  Valera5609
20 730 21-04-2016 12:48:47  Silmaril
18 1031 21-04-2016 12:07:58  f.laser
1 166 17-04-2016 23:10:04  megagad
331 Резка с углекислотой  Виктор Краски
23 728 17-04-2016 08:59:55  Flint2015
13 1849 15-04-2016 11:34:20  ImageLaser
11 285 11-04-2016 14:35:21  MaxMaster
13 379 09-04-2016 20:30:46  aldushin
5 275 06-04-2016 17:28:09  daguss
992 93996 29-03-2016 17:50:18  sva-don
14 379 26-03-2016 10:17:16  Егорий
338 Закрыта Резко упала мощность  Neudrums
10 326 24-03-2016 00:59:57  Neudrums
5 423 22-03-2016 20:12:39  Дилик
19 1822 16-03-2016 23:19:45  Falcor
341 Прошу помощи.  Назар
5 307 16-03-2016 09:51:09  Назар
8 238 14-03-2016 16:51:53  Расулыч
7 406 10-03-2016 20:36:59  chirik
5 734 07-03-2016 20:32:32  Flint2015
19 1711 04-03-2016 17:27:39  Airside
4 194 29-02-2016 22:43:44  nikson
5 172 27-02-2016 08:50:26  Flint2015
348 Тестирование размера реза  Виктор Краски
9 473 26-02-2016 16:55:55  daguss
349 кривая резка  Восходник
17 488 26-02-2016 00:06:30  semerochka
80 5812 22-02-2016 20:51:36  Kinetic
17 926 22-02-2016 12:02:26  Kinetic
30 1010 19-02-2016 21:54:44  Rudiarius
5 575 14-02-2016 15:24:59  gabber
7 393 14-02-2016 12:43:54  Zippo
12 378 12-02-2016 17:15:38  Yaroslavl
2 205 12-02-2016 10:23:44  Администратор
22 878 07-02-2016 15:27:40  Imobile
6 321 28-01-2016 17:09:21  StarPOM
25 945 26-01-2016 15:23:58  Zippo
16 672 15-01-2016 04:57:58  Tauhuh
361 Аквапомпа  markaru
7 308 12-01-2016 18:35:57  dm6
3 235 07-01-2016 00:45:42  okruk
4 241 05-01-2016 10:25:43  markaru
364 Нужна помощь специалистов!  Мастер на все руки
30 1248 02-01-2016 20:05:38  racon75
7 205 24-12-2015 12:08:34  lexus80
22 2331 21-12-2015 14:22:31  Kuz
14 366 14-12-2015 15:59:50  YuSTas
8 332 12-12-2015 20:20:10  Shamankiller
15 572 12-12-2015 18:02:39  racon75
38 911 08-12-2015 23:46:50  asor
35 896 08-12-2015 18:35:57  dm6
8 359 07-12-2015 21:25:28  Dimon
25 906 04-12-2015 21:36:10  Silmaril
374 Лазерный станок Kamach II 1280 AS  радион рашитович
4 233 04-12-2015 20:36:20  Airside
4 301 04-12-2015 10:56:16  Drakonstar
9 625 29-11-2015 02:45:00  Лазорез
38 797 27-11-2015 18:12:36  ЫХ-000
41 1367 27-11-2015 12:34:06  Slym
44 1844 22-11-2015 11:50:31  _king_
380 mpc6525 - завис  Dr_dober
2 245 16-11-2015 12:54:39  Dr_dober
5 207 10-11-2015 22:25:27  Прокоп
30 2191 09-11-2015 16:17:15  bort747
1 209 07-11-2015 14:48:03  MobileMan
384 Гравивовка на iPhone  Максим1975
9 598 28-10-2015 12:02:57  Восходник
44 1088 25-10-2015 16:54:39  tok17
3 241 25-10-2015 11:20:20  Фёдор Соколов
12 640 24-10-2015 11:53:29  yri71
21 1794 21-10-2015 23:59:06  dmitrymi
10 726 20-10-2015 16:04:37  YuSTas
2 96 20-10-2015 15:35:36  Kuz
6 240 15-10-2015 09:36:29  Валерия-206
3 195 13-10-2015 11:20:10  Kuz
1 151 06-10-2015 16:34:03  coolmail
29 1017 30-09-2015 12:07:02  olejah
9 402 28-09-2015 04:25:16  BlackOx
396 Расфокусировка  Прокоп
8 310 24-09-2015 20:30:02  Прокоп
14 379 24-09-2015 20:07:38  Lord
6 234 23-09-2015 08:43:57  Airside
3 127 22-09-2015 17:06:12  PalSecam
3 153 22-09-2015 14:56:27  PalSecam

Вы здесь » Форум клана ЧПУшников » Лазерные станки